Terminal Aerodrome Forecast
Issued by NWS

Home | Current Version | Previous Version | Text Only | Print | Product List | Glossary On
Versions: 1 2 3 4 5 6 7 8 9 10 11 12 13 14 15
000
FTUS43 KICT 280849 AAA
TAFCNU
TAF AMD
KCNU 280849Z 2809/2906 10007KT P6SM VCTS SCT050 BKN080CB
      TEMPO 2811/2814 5SM -TSRA BKN012 OVC040CB
     FM281600 16009KT P6SM OVC020
     FM282100 13007KT P6SM BKN030
     FM290200 05008KT P6SM VCSH OVC030=

USA.gov is the U.S. government's official web portal to all federal, state and local government web resources and services.